Time;durP1;ratioP1;P1;durP2;ratioP2;P2;SDS_P1;SDS_P2;PMS_P1;PMS_P2;Temp;Humidity;BMP_temperature;BMP_pressure;BME280_temperature;BME280_humidity;BME280_pressure;Samples;Min_cycle;Max_cycle;Signal;HPM_P1;HPM_P2
2021/08/13 00:00:53;;;;;;;5.90;4.20;;;16.60;99.90;;;;;;5044657;28;20200;-88
2021/08/13 00:03:20;;;;;;;4.87;3.30;;;16.60;99.90;;;;;;5041811;28;20209;-88
2021/08/13 00:05:46;;;;;;;7.73;3.50;;;16.50;99.90;;;;;;5041880;28;20225;-87
2021/08/13 00:08:12;;;;;;;4.90;3.00;;;16.50;99.90;;;;;;5044581;28;20217;-88
2021/08/13 00:10:38;;;;;;;6.40;4.10;;;16.50;99.90;;;;;;5050690;28;20193;-88
2021/08/13 00:13:04;;;;;;;4.80;3.30;;;16.50;99.90;;;;;;5042956;28;20200;-87
2021/08/13 00:15:30;;;;;;;10.00;3.23;;;16.40;99.90;;;;;;5058348;28;20738;-87
2021/08/13 00:17:56;;;;;;;6.90;3.60;;;16.40;99.90;;;;;;5041255;28;20213;-88
2021/08/13 00:20:22;;;;;;;5.90;3.80;;;16.40;99.90;;;;;;5041217;28;20209;-87
2021/08/13 00:22:50;;;;;;;3.47;2.40;;;16.40;99.90;;;;;;5056460;28;20232;-87
2021/08/13 00:25:16;;;;;;;4.87;3.03;;;16.40;99.90;;;;;;5041307;28;20205;-87
2021/08/13 00:27:42;;;;;;;9.67;3.87;;;16.40;99.90;;;;;;5058032;28;20213;-87
2021/08/13 00:30:09;;;;;;;6.87;3.57;;;16.40;99.90;;;;;;5038359;28;20232;-87
2021/08/13 00:32:35;;;;;;;6.20;3.53;;;16.40;99.90;;;;;;5040784;28;20216;-87
2021/08/13 00:35:01;;;;;;;7.10;3.40;;;16.40;99.90;;;;;;5039027;28;20685;-88
2021/08/13 00:37:26;;;;;;;5.37;3.23;;;16.30;99.90;;;;;;5060696;28;20181;-87
2021/08/13 00:39:53;;;;;;;4.70;3.43;;;16.30;99.90;;;;;;5041887;28;20221;-88
2021/08/13 00:42:19;;;;;;;9.37;3.53;;;16.30;99.90;;;;;;5059006;28;20216;-88
2021/08/13 00:44:45;;;;;;;8.00;4.27;;;16.30;99.90;;;;;;5056936;28;20240;-88
2021/08/13 00:47:10;;;;;;;5.23;3.80;;;16.30;99.90;;;;;;5058501;28;20247;-88
2021/08/13 00:49:36;;;;;;;8.70;3.97;;;16.30;99.90;;;;;;5050159;28;20194;-88
2021/08/13 00:52:02;;;;;;;4.57;3.27;;;16.30;99.90;;;;;;5025495;28;20186;-89
2021/08/13 00:54:29;;;;;;;8.43;4.53;;;16.30;99.90;;;;;;5042554;28;20240;-88
2021/08/13 00:56:54;;;;;;;5.57;3.73;;;16.30;99.90;;;;;;5038894;28;20211;-88
2021/08/13 00:59:20;;;;;;;8.10;4.73;;;16.20;99.90;;;;;;5057256;28;20803;-89
2021/08/13 01:01:46;;;;;;;9.40;4.77;;;16.20;99.90;;;;;;5038750;28;20189;-88
2021/08/13 01:04:12;;;;;;;6.63;4.20;;;16.20;99.90;;;;;;5043036;28;20213;-88
2021/08/13 01:06:38;;;;;;;8.03;4.07;;;16.20;99.90;;;;;;5058065;28;20209;-88
2021/08/13 01:09:04;;;;;;;7.97;4.83;;;16.20;99.90;;;;;;5055934;28;20224;-88
2021/08/13 01:11:59;;;;;;;9.43;4.07;;;16.20;99.90;;;;;;5039237;28;20342;-89
2021/08/13 01:14:44;;;;;;;6.93;4.37;;;16.10;99.90;;;;;;5058538;28;20228;-89
2021/08/13 01:17:14;;;;;;;7.10;4.23;;;16.00;99.90;;;;;;5057344;28;20232;-88
2021/08/13 01:20:01;;;;;;;5.37;3.90;;;15.90;99.90;;;;;;5057020;28;20211;-87
2021/08/13 01:22:44;;;;;;;6.90;3.77;;;15.80;99.90;;;;;;5057409;28;20183;-88
2021/08/13 01:25:14;;;;;;;5.87;3.70;;;15.80;99.90;;;;;;5059047;28;20304;-87
2021/08/13 01:27:44;;;;;;;5.90;4.60;;;15.70;99.90;;;;;;5074943;28;20675;-87
2021/08/13 01:30:17;;;;;;;6.67;4.30;;;15.70;99.90;;;;;;5076533;28;20205;-88
2021/08/13 01:32:52;;;;;;;12.43;5.20;;;15.70;99.90;;;;;;5056811;28;20224;-89
2021/08/13 01:35:25;;;;;;;6.40;4.27;;;15.70;99.90;;;;;;5074267;28;20227;-88
2021/08/13 01:37:58;;;;;;;5.93;4.47;;;15.80;99.90;;;;;;5055278;28;20255;-89
2021/08/13 01:40:26;;;;;;;7.00;4.60;;;15.70;99.90;;;;;;5074311;28;20641;-87
2021/08/13 01:42:54;;;;;;;6.47;4.07;;;15.80;99.90;;;;;;5040524;28;20239;-88
2021/08/13 01:45:32;;;;;;;8.33;4.90;;;15.80;99.90;;;;;;5056326;28;20223;-90
2021/08/13 01:47:59;;;;;;;11.73;5.60;;;15.80;99.90;;;;;;5058935;28;20209;-87
2021/08/13 01:50:26;;;;;;;7.20;4.63;;;15.80;99.90;;;;;;5043002;28;20688;-87
2021/08/13 01:52:55;;;;;;;8.07;4.77;;;15.80;99.90;;;;;;5058367;28;20834;-87
2021/08/13 01:55:21;;;;;;;9.17;5.07;;;15.80;99.90;;;;;;5041697;28;20185;-87
2021/08/13 01:57:48;;;;;;;8.57;4.83;;;15.70;99.90;;;;;;5055346;28;20213;-87
2021/08/13 02:00:19;;;;;;;12.93;5.97;;;15.70;99.90;;;;;;5058346;28;20281;-87
2021/08/13 02:02:45;;;;;;;9.10;5.10;;;15.70;99.90;;;;;;5053679;28;20258;-87
2021/08/13 02:05:15;;;;;;;12.87;5.70;;;15.70;99.90;;;;;;5049863;28;20597;-87
2021/08/13 02:07:42;;;;;;;10.10;4.83;;;15.70;99.90;;;;;;5039347;28;20227;-88
2021/08/13 02:10:10;;;;;;;12.10;6.20;;;15.70;99.90;;;;;;5058099;28;20224;-88
2021/08/13 02:12:36;;;;;;;12.37;5.03;;;15.70;99.90;;;;;;5048958;28;20236;-87
2021/08/13 02:15:04;;;;;;;8.40;4.60;;;15.70;99.90;;;;;;5040920;28;20711;-88
2021/08/13 02:17:33;;;;;;;9.17;4.40;;;15.70;99.90;;;;;;5063180;28;20240;-89
2021/08/13 02:20:13;;;;;;;11.70;5.60;;;15.70;99.90;;;;;;5059476;28;20212;-88
2021/08/13 02:22:39;;;;;;;8.87;5.53;;;15.60;99.90;;;;;;5062192;28;20208;-88
2021/08/13 02:25:05;;;;;;;10.63;5.87;;;15.70;99.90;;;;;;5044678;28;20205;-88
2021/08/13 02:27:32;;;;;;;13.43;6.13;;;15.70;99.90;;;;;;5060873;28;20220;-88
2021/08/13 02:29:58;;;;;;;10.67;6.07;;;15.70;99.90;;;;;;5052915;28;20571;-88
2021/08/13 02:32:28;;;;;;;13.33;6.27;;;15.70;99.90;;;;;;5043538;28;20208;-89
2021/08/13 02:34:54;;;;;;;13.47;6.03;;;15.70;99.90;;;;;;5059012;28;20221;-88
2021/08/13 02:37:30;;;;;;;10.23;7.17;;;15.70;99.90;;;;;;5077880;28;20189;-87
2021/08/13 02:40:16;;;;;;;9.33;6.47;;;15.80;99.90;;;;;;5062081;28;20204;-88
2021/08/13 02:42:51;;;;;;;13.43;7.97;;;15.70;99.90;;;;;;5062072;28;20766;-88
2021/08/13 02:45:21;;;;;;;14.10;7.33;;;15.70;99.90;;;;;;5078823;28;20253;-88
2021/08/13 02:47:47;;;;;;;15.73;6.67;;;15.70;99.90;;;;;;5058035;28;20213;-87
2021/08/13 02:50:15;;;;;;;14.87;7.80;;;15.70;99.90;;;;;;5059612;28;20212;-88
2021/08/13 02:52:54;;;;;;;17.03;8.73;;;15.80;99.90;;;;;;5045101;28;20704;-88
2021/08/13 02:55:25;;;;;;;15.70;8.67;;;15.70;99.90;;;;;;5059911;28;20216;-88
2021/08/13 02:57:54;;;;;;;15.17;8.77;;;15.70;99.90;;;;;;5060170;28;20217;-88
2021/08/13 03:00:21;;;;;;;13.73;8.17;;;15.70;99.90;;;;;;5058053;28;20216;-88
2021/08/13 03:02:51;;;;;;;14.57;8.90;;;15.70;99.90;;;;;;5062568;28;20212;-88
2021/08/13 03:05:21;;;;;;;12.10;7.50;;;15.70;99.90;;;;;;5058168;28;20232;-88
2021/08/13 03:07:47;;;;;;;16.40;9.03;;;15.70;99.90;;;;;;5079273;28;20203;-88
2021/08/13 03:10:13;;;;;;;16.20;8.60;;;15.60;99.90;;;;;;5037034;28;20211;-87
2021/08/13 03:12:39;;;;;;;17.27;7.67;;;15.60;99.90;;;;;;5060544;28;20224;-87
2021/08/13 03:15:06;;;;;;;17.10;9.47;;;15.60;99.90;;;;;;5043645;28;20303;-88
2021/08/13 03:17:33;;;;;;;11.87;6.83;;;15.60;99.90;;;;;;5043384;28;20669;-87
2021/08/13 03:20:01;;;;;;;18.00;8.57;;;15.60;99.90;;;;;;5058339;28;20304;-87
2021/08/13 03:22:28;;;;;;;10.40;7.80;;;15.60;99.90;;;;;;5057907;28;20276;-89
2021/08/13 03:24:54;;;;;;;16.97;7.93;;;15.60;99.90;;;;;;5058546;28;20232;-89
2021/08/13 03:27:20;;;;;;;10.43;7.17;;;15.60;99.90;;;;;;5059626;28;20615;-88
2021/08/13 03:29:46;;;;;;;11.33;7.17;;;15.60;99.90;;;;;;5061996;28;20208;-88
2021/08/13 03:32:11;;;;;;;11.77;6.90;;;15.50;99.90;;;;;;5042309;28;20213;-87
2021/08/13 03:34:37;;;;;;;18.17;7.90;;;15.50;99.90;;;;;;5025289;28;20189;-87
2021/08/13 03:37:03;;;;;;;13.10;7.83;;;15.50;99.90;;;;;;5058780;28;20192;-86
2021/08/13 03:39:29;;;;;;;12.93;7.67;;;15.60;99.90;;;;;;5041514;28;20220;-87
2021/08/13 03:41:56;;;;;;;15.03;7.33;;;15.60;99.90;;;;;;5041142;28;20719;-89
2021/08/13 03:44:21;;;;;;;16.53;8.17;;;15.60;99.90;;;;;;5059826;28;20220;-88
2021/08/13 03:46:47;;;;;;;14.17;7.13;;;15.70;99.90;;;;;;5043688;28;20220;-87
2021/08/13 03:49:13;;;;;;;15.17;9.03;;;15.80;99.90;;;;;;5043471;28;20662;-87
2021/08/13 03:51:39;;;;;;;14.17;6.30;;;15.80;99.90;;;;;;5040939;28;20236;-87
2021/08/13 03:54:08;;;;;;;11.47;7.43;;;15.90;99.90;;;;;;5041182;28;20236;-88
2021/08/13 03:56:34;;;;;;;14.23;7.10;;;15.90;99.90;;;;;;5059187;28;20723;-87
2021/08/13 03:59:00;;;;;;;12.77;7.47;;;15.90;99.90;;;;;;5042250;28;20236;-87
2021/08/13 04:01:26;;;;;;;12.67;7.07;;;15.90;99.90;;;;;;5060260;28;20181;-88
2021/08/13 04:03:52;;;;;;;11.93;6.93;;;15.90;99.90;;;;;;5041057;28;20219;-88
2021/08/13 04:06:18;;;;;;;15.00;7.00;;;16.00;99.90;;;;;;5058078;28;20283;-87
2021/08/13 04:08:43;;;;;;;15.67;7.87;;;16.00;99.90;;;;;;5042529;28;20247;-88
2021/08/13 04:11:09;;;;;;;16.37;8.20;;;16.10;99.90;;;;;;5043142;28;20240;-88
2021/08/13 04:13:35;;;;;;;14.97;8.07;;;16.10;99.90;;;;;;5041156;28;20193;-87
2021/08/13 04:16:01;;;;;;;17.10;7.93;;;16.10;99.90;;;;;;5078275;28;20251;-88
2021/08/13 04:18:26;;;;;;;17.37;8.87;;;16.20;99.90;;;;;;5042357;28;20209;-88
2021/08/13 04:20:52;;;;;;;19.70;9.97;;;16.20;99.90;;;;;;5040125;28;20707;-88
2021/08/13 04:23:18;;;;;;;17.40;9.07;;;16.20;99.90;;;;;;5041218;28;20795;-87
2021/08/13 04:25:44;;;;;;;16.57;8.27;;;16.30;99.90;;;;;;5042416;28;20258;-87
2021/08/13 04:28:09;;;;;;;15.10;8.97;;;16.30;99.90;;;;;;5043458;28;20184;-87
2021/08/13 04:30:35;;;;;;;16.20;9.43;;;16.30;99.90;;;;;;5039599;28;20228;-88
2021/08/13 04:33:07;;;;;;;17.67;9.70;;;16.30;99.90;;;;;;5041482;28;20217;-88
2021/08/13 04:35:33;;;;;;;20.90;8.90;;;16.30;99.90;;;;;;5056788;28;20697;-87
2021/08/13 04:37:59;;;;;;;16.17;7.77;;;16.40;99.90;;;;;;5057693;28;20213;-87
2021/08/13 04:40:24;;;;;;;20.67;9.67;;;16.50;99.90;;;;;;5042483;28;20189;-87
2021/08/13 04:42:50;;;;;;;16.73;9.80;;;16.40;99.90;;;;;;5041491;28;20221;-87
2021/08/13 04:45:16;;;;;;;17.10;8.97;;;16.50;99.90;;;;;;5038553;28;20252;-86
2021/08/13 04:47:42;;;;;;;21.20;9.50;;;16.50;99.90;;;;;;5036368;28;20205;-87
2021/08/13 04:50:08;;;;;;;21.93;9.00;;;16.60;99.90;;;;;;5058463;28;20208;-89
2021/08/13 04:52:42;;;;;;;15.63;8.47;;;16.70;99.90;;;;;;5039960;28;20550;-88
2021/08/13 04:55:08;;;;;;;18.37;9.70;;;16.80;99.90;;;;;;5051379;28;20644;-88
2021/08/13 04:57:34;;;;;;;20.73;9.70;;;16.90;99.90;;;;;;5024049;28;20201;-88
2021/08/13 05:00:00;;;;;;;16.57;9.20;;;17.00;99.90;;;;;;5035441;28;20235;-89
2021/08/13 05:02:25;;;;;;;18.20;9.67;;;17.00;99.90;;;;;;5041018;28;20689;-88
2021/08/13 05:04:59;;;;;;;18.27;10.17;;;17.10;99.90;;;;;;5040456;28;20233;-87
2021/08/13 05:07:24;;;;;;;18.67;10.07;;;17.30;99.90;;;;;;5077009;28;20185;-87
2021/08/13 05:09:50;;;;;;;22.23;9.30;;;17.30;99.90;;;;;;5041067;28;20217;-87
2021/08/13 05:12:16;;;;;;;23.20;10.77;;;17.50;99.90;;;;;;5041227;28;20628;-85
2021/08/13 05:14:42;;;;;;;20.87;10.37;;;17.60;99.90;;;;;;5033069;28;20216;-87
2021/08/13 05:17:07;;;;;;;17.97;10.07;;;17.70;99.90;;;;;;5040272;28;20332;-88
2021/08/13 05:19:33;;;;;;;21.27;10.73;;;17.80;99.90;;;;;;5040585;28;20192;-87
2021/08/13 05:21:59;;;;;;;20.13;9.43;;;17.80;99.90;;;;;;5056468;28;20201;-88
2021/08/13 05:24:25;;;;;;;15.50;8.63;;;17.90;99.90;;;;;;5040442;28;20231;-86
2021/08/13 05:26:50;;;;;;;18.07;8.73;;;17.90;99.90;;;;;;5040461;28;20222;-88
2021/08/13 05:29:16;;;;;;;19.30;9.77;;;18.10;99.90;;;;;;5058851;28;20213;-85
2021/08/13 05:31:42;;;;;;;15.53;10.53;;;18.10;99.90;;;;;;5040932;28;20185;-85
2021/08/13 05:34:08;;;;;;;18.03;9.00;;;18.30;99.90;;;;;;5038577;28;20275;-86
2021/08/13 05:36:33;;;;;;;17.17;9.03;;;18.70;99.90;;;;;;5056988;28;20825;-84
2021/08/13 05:38:59;;;;;;;17.10;8.23;;;18.90;99.90;;;;;;5021811;28;20278;-86
2021/08/13 05:41:25;;;;;;;19.27;9.03;;;19.30;99.90;;;;;;5020764;28;20257;-84
2021/08/13 05:43:51;;;;;;;15.53;8.47;;;20.00;99.90;;;;;;5056250;28;20303;-88
2021/08/13 05:46:16;;;;;;;14.53;9.60;;;21.40;99.90;;;;;;5038191;28;20185;-83
2021/08/13 05:48:42;;;;;;;17.93;9.60;;;22.60;99.90;;;;;;5037736;28;20243;-87
2021/08/13 05:51:08;;;;;;;14.77;8.23;;;23.80;99.90;;;;;;5055720;28;20658;-84
2021/08/13 05:53:33;;;;;;;13.33;7.73;;;24.50;99.90;;;;;;5039775;28;21158;-83
2021/08/13 05:55:59;;;;;;;15.43;7.57;;;25.70;99.90;;;;;;5040990;28;20203;-85
2021/08/13 05:58:25;;;;;;;15.07;7.80;;;25.50;99.90;;;;;;5042401;28;20552;-85
2021/08/13 06:00:51;;;;;;;13.13;8.27;;;24.70;99.90;;;;;;5039727;28;20220;-89
2021/08/13 06:03:16;;;;;;;11.27;6.77;;;24.30;99.90;;;;;;5038415;28;20215;-84
2021/08/13 06:05:42;;;;;;;13.77;7.00;;;24.50;99.90;;;;;;5038036;28;20588;-85
2021/08/13 06:08:08;;;;;;;13.23;6.60;;;24.60;99.90;;;;;;5056713;28;20213;-84
2021/08/13 06:10:33;;;;;;;16.57;8.30;;;24.30;99.90;;;;;;5023983;28;21249;-85
2021/08/13 06:12:59;;;;;;;10.57;6.87;;;23.90;99.90;;;;;;5021709;28;20191;-87
2021/08/13 06:15:25;;;;;;;11.07;6.57;;;23.50;99.90;;;;;;5037414;28;21298;-84
2021/08/13 06:17:51;;;;;;;12.50;6.87;;;23.20;99.90;;;;;;5036362;28;20221;-87
2021/08/13 06:20:19;;;;;;;11.60;7.43;;;23.50;99.90;;;;;;5039823;28;20220;-85
2021/08/13 06:22:45;;;;;;;13.80;7.73;;;23.60;99.90;;;;;;5057512;28;20193;-87
2021/08/13 06:25:11;;;;;;;10.73;6.60;;;24.40;99.90;;;;;;5039241;28;20280;-88
2021/08/13 06:27:41;;;;;;;9.20;6.00;;;24.40;99.90;;;;;;5038977;28;20258;-86
2021/08/13 06:30:09;;;;;;;10.95;6.68;;;24.10;99.90;;;;;;5056090;28;20235;-85
2021/08/13 06:32:35;;;;;;;11.45;6.60;;;24.40;99.90;;;;;;5037573;28;20681;-86
2021/08/13 06:35:01;;;;;;;11.82;7.38;;;24.80;99.90;;;;;;5039867;28;20317;-85
2021/08/13 06:37:27;;;;;;;10.23;6.63;;;25.60;99.90;;;;;;5041579;28;20190;-86
2021/08/13 06:39:53;;;;;;;13.65;8.15;;;24.80;99.90;;;;;;5035567;28;20220;-86
2021/08/13 06:42:18;;;;;;;12.05;6.55;;;25.30;99.90;;;;;;5037955;28;20224;-86
2021/08/13 06:44:44;;;;;;;12.80;6.82;;;25.10;99.90;;;;;;5055388;28;20786;-86
2021/08/13 06:47:10;;;;;;;12.70;6.53;;;24.10;99.90;;;;;;5037880;28;20269;-86
2021/08/13 06:49:36;;;;;;;12.52;6.97;;;23.50;99.90;;;;;;5041538;28;20205;-85
2021/08/13 06:52:02;;;;;;;11.60;6.35;;;22.80;99.90;;;;;;5055313;28;20200;-84
2021/08/13 06:54:28;;;;;;;11.10;6.10;;;22.60;99.90;;;;;;5038980;28;20220;-86
2021/08/13 06:56:54;;;;;;;9.50;5.73;;;22.10;99.90;;;;;;5039813;28;20212;-87
2021/08/13 06:59:20;;;;;;;10.68;6.38;;;22.20;99.90;;;;;;5037848;28;20435;-88
2021/08/13 07:01:46;;;;;;;10.05;6.15;;;22.70;99.90;;;;;;5043604;28;20593;-83
2021/08/13 07:04:11;;;;;;;12.93;6.47;;;22.80;99.90;;;;;;5043735;28;20213;-86
2021/08/13 07:06:37;;;;;;;10.47;6.93;;;23.00;99.90;;;;;;5041561;28;20323;-88
2021/08/13 07:09:03;;;;;;;12.20;5.78;;;23.50;99.90;;;;;;5040506;28;20196;-85
2021/08/13 07:11:28;;;;;;;11.33;5.90;;;23.10;99.90;;;;;;5057567;28;20584;-86
2021/08/13 07:13:54;;;;;;;12.93;6.05;;;22.70;99.90;;;;;;5060345;28;20244;-88
2021/08/13 07:16:20;;;;;;;10.20;5.77;;;22.00;99.90;;;;;;5041552;28;20247;-87
2021/08/13 07:18:45;;;;;;;9.60;5.43;;;21.70;99.90;;;;;;5039708;28;20311;-85
2021/08/13 07:21:11;;;;;;;9.50;5.17;;;21.60;99.90;;;;;;5041815;28;20562;-89
2021/08/13 07:23:37;;;;;;;8.27;5.13;;;21.90;99.90;;;;;;5042751;28;20575;-86
2021/08/13 07:26:03;;;;;;;8.88;5.18;;;21.50;99.90;;;;;;5041740;28;20239;-85
2021/08/13 07:28:29;;;;;;;7.17;3.87;;;21.40;99.90;;;;;;5041987;28;20242;-85
2021/08/13 07:30:54;;;;;;;6.67;4.57;;;21.40;99.90;;;;;;5042980;28;20184;-87
2021/08/13 07:33:20;;;;;;;6.77;4.57;;;21.30;99.90;;;;;;5041792;28;20572;-87
2021/08/13 07:35:46;;;;;;;10.80;4.80;;;21.00;99.90;;;;;;5061151;28;20227;-89
2021/08/13 07:38:11;;;;;;;6.57;4.40;;;20.90;99.90;;;;;;5061083;28;20292;-90
2021/08/13 07:40:37;;;;;;;4.70;3.03;;;20.90;99.90;;;;;;5042088;28;20200;-89
2021/08/13 07:43:03;;;;;;;5.97;3.20;;;20.70;99.90;;;;;;5044504;28;20224;-90
2021/08/13 07:45:29;;;;;;;4.83;3.20;;;20.40;99.90;;;;;;5045120;28;20374;-88
2021/08/13 07:47:55;;;;;;;6.00;3.60;;;20.20;99.90;;;;;;5042119;28;20315;-88
2021/08/13 07:50:21;;;;;;;7.93;3.50;;;20.20;99.90;;;;;;5042418;28;20236;-87
2021/08/13 07:52:46;;;;;;;3.80;2.73;;;20.40;99.90;;;;;;5040649;28;20213;-87
2021/08/13 07:55:12;;;;;;;3.63;2.60;;;20.40;99.90;;;;;;5044140;28;20212;-87
2021/08/13 07:57:38;;;;;;;7.37;3.57;;;20.40;99.90;;;;;;5042294;28;20697;-87
2021/08/13 08:00:04;;;;;;;5.23;2.77;;;20.50;99.90;;;;;;5043540;28;20209;-90
2021/08/13 08:02:30;;;;;;;8.17;4.10;;;20.60;99.90;;;;;;5041086;28;20212;-90
2021/08/13 08:04:56;;;;;;;4.60;2.73;;;20.70;99.90;;;;;;5043577;28;20969;-87
2021/08/13 08:07:22;;;;;;;8.27;3.07;;;20.70;99.90;;;;;;5043373;28;20249;-90
2021/08/13 08:09:47;;;;;;;6.00;3.17;;;20.50;99.90;;;;;;5042051;28;20215;-86
2021/08/13 08:12:13;;;;;;;4.97;2.77;;;20.80;99.90;;;;;;5025052;28;20715;-87
2021/08/13 08:14:39;;;;;;;5.67;3.23;;;21.30;99.90;;;;;;5059360;28;20209;-87
2021/08/13 08:17:05;;;;;;;6.23;3.27;;;21.70;99.90;;;;;;5025451;28;20229;-88
2021/08/13 08:19:31;;;;;;;3.87;2.80;;;21.80;99.90;;;;;;5040517;28;20189;-90
2021/08/13 08:21:56;;;;;;;5.23;2.90;;;21.70;99.90;;;;;;5058082;28;20262;-87
2021/08/13 08:24:22;;;;;;;6.27;2.93;;;21.80;99.90;;;;;;5040113;28;20213;-87
2021/08/13 08:26:48;;;;;;;6.07;2.80;;;21.40;99.90;;;;;;5040998;28;20208;-88
2021/08/13 08:29:14;;;;;;;7.53;3.03;;;21.50;99.90;;;;;;5038263;28;20220;-90
2021/08/13 08:31:40;;;;;;;5.20;3.47;;;22.00;99.90;;;;;;5040381;28;20204;-88
2021/08/13 08:34:06;;;;;;;7.90;3.67;;;22.00;99.90;;;;;;5041266;28;20650;-89
2021/08/13 08:36:31;;;;;;;6.37;3.93;;;21.80;99.90;;;;;;5040418;28;20205;-88
2021/08/13 08:38:58;;;;;;;4.87;3.17;;;21.40;99.90;;;;;;5058714;28;20204;-89
2021/08/13 08:41:25;;;;;;;4.93;3.27;;;21.50;99.90;;;;;;5058161;28;20296;-88
2021/08/13 08:43:51;;;;;;;5.43;2.80;;;21.60;99.90;;;;;;5041289;28;20220;-88
2021/08/13 08:46:19;;;;;;;7.17;2.53;;;21.40;99.90;;;;;;5025405;28;20231;-91
2021/08/13 08:48:49;;;;;;;4.77;2.70;;;21.30;99.90;;;;;;5058002;28;20750;-88
2021/08/13 08:51:16;;;;;;;4.53;2.93;;;22.00;99.90;;;;;;5041061;28;20615;-89
2021/08/13 08:53:44;;;;;;;8.87;3.80;;;23.00;99.90;;;;;;5040052;28;20224;-90
2021/08/13 08:56:10;;;;;;;5.13;2.57;;;23.40;99.90;;;;;;5058511;28;20213;-90
2021/08/13 08:58:36;;;;;;;5.10;2.47;;;23.40;99.90;;;;;;5041205;28;20691;-89
2021/08/13 09:01:02;;;;;;;4.82;2.28;;;22.80;99.90;;;;;;5039409;28;20607;-87
2021/08/13 09:03:28;;;;;;;4.20;2.40;;;22.00;99.90;;;;;;5036934;28;20351;-87
2021/08/13 09:05:54;;;;;;;4.88;2.50;;;21.90;99.90;;;;;;5054448;28;20303;-88
2021/08/13 09:08:20;;;;;;;3.08;1.70;;;21.90;99.90;;;;;;5041654;28;20402;-89
2021/08/13 09:10:46;;;;;;;5.97;2.53;;;22.70;99.90;;;;;;5038671;28;20188;-88
2021/08/13 09:13:12;;;;;;;3.35;1.60;;;23.50;99.90;;;;;;5042391;28;20188;-87
2021/08/13 09:15:42;;;;;;;3.15;2.00;;;23.80;99.90;;;;;;5040190;28;20237;-88
2021/08/13 09:18:24;;;;;;;3.20;1.88;;;23.90;99.90;;;;;;5055277;28;20701;-90
2021/08/13 09:20:55;;;;;;;4.50;2.42;;;23.20;99.90;;;;;;5060276;28;20730;-89
2021/08/13 09:23:34;;;;;;;8.20;2.58;;;22.50;99.90;;;;;;5065638;28;20221;-88
2021/08/13 09:26:06;;;;;;;5.82;2.25;;;22.20;99.90;;;;;;5073672;28;20264;-88
2021/08/13 09:28:42;;;;;;;3.58;2.22;;;21.90;99.90;;;;;;5055469;28;20219;-89
2021/08/13 09:31:17;;;;;;;5.22;1.58;;;22.30;99.90;;;;;;5054603;28;20196;-89
2021/08/13 09:33:48;;;;;;;2.78;1.77;;;22.90;99.90;;;;;;5056239;28;20219;-90
2021/08/13 09:36:22;;;;;;;3.75;1.70;;;23.40;99.90;;;;;;5042470;28;20213;-87
2021/08/13 09:39:00;;;;;;;4.07;2.20;;;23.00;99.90;;;;;;5050189;28;20213;-88
2021/08/13 09:41:26;;;;;;;5.95;2.72;;;22.90;99.90;;;;;;5059082;28;20216;-90
2021/08/13 09:43:57;;;;;;;3.97;2.00;;;23.10;99.90;;;;;;5039932;28;20246;-90
2021/08/13 09:46:24;;;;;;;3.05;2.10;;;23.60;99.90;;;;;;5057421;28;20189;-90
2021/08/13 09:48:50;;;;;;;5.57;2.40;;;23.10;99.90;;;;;;5041941;28;20212;-87
2021/08/13 09:51:31;;;;;;;1.33;1.20;;;23.20;99.90;;;;;;5071894;28;20239;-87
2021/08/13 09:54:01;;;;;;;3.83;2.53;;;22.20;99.90;;;;;;5057652;28;20241;-88
2021/08/13 09:56:29;;;;;;;2.08;1.90;;;21.80;99.90;;;;;;5041280;28;20232;-89
2021/08/13 09:59:07;;;;;;;6.35;2.28;;;21.50;99.90;;;;;;5075548;28;20224;-89
2021/08/13 10:01:43;;;;;;;5.25;1.90;;;21.80;99.90;;;;;;5055975;28;20219;-90
2021/08/13 10:04:09;;;;;;;5.10;2.72;;;22.10;99.90;;;;;;5074089;28;20212;-90
2021/08/13 10:06:36;;;;;;;2.33;1.85;;;22.80;99.90;;;;;;5053492;28;20232;-88
2021/08/13 10:09:03;;;;;;;4.80;2.08;;;23.40;99.90;;;;;;5055842;28;20262;-88
2021/08/13 10:11:31;;;;;;;3.92;1.77;;;22.80;99.90;;;;;;5038117;28;20703;-88
2021/08/13 10:13:57;;;;;;;3.92;1.70;;;22.80;99.90;;;;;;5068970;28;20213;-87
2021/08/13 10:16:28;;;;;;;5.93;1.90;;;22.50;99.90;;;;;;5057063;28;20585;-89
2021/08/13 10:18:57;;;;;;;1.85;1.45;;;22.60;99.90;;;;;;5066275;28;20209;-88
2021/08/13 10:21:24;;;;;;;3.38;1.50;;;22.40;99.90;;;;;;5055425;28;20228;-88
2021/08/13 10:23:54;;;;;;;2.58;1.30;;;21.90;99.90;;;;;;5037754;28;20205;-86
2021/08/13 10:26:21;;;;;;;2.95;1.40;;;21.40;99.90;;;;;;5038033;28;21457;-87
2021/08/13 10:28:48;;;;;;;2.67;1.43;;;21.10;99.90;;;;;;5056942;28;20230;-88
2021/08/13 10:31:17;;;;;;;4.00;1.75;;;20.90;99.90;;;;;;5056432;28;20188;-87
2021/08/13 10:33:44;;;;;;;3.07;1.17;;;20.90;99.90;;;;;;5056631;28;20235;-86
2021/08/13 10:36:11;;;;;;;5.27;2.07;;;20.90;99.90;;;;;;5058748;28;20609;-90
2021/08/13 10:38:38;;;;;;;3.07;2.17;;;21.10;99.90;;;;;;5052510;28;20220;-87
2021/08/13 10:41:05;;;;;;;4.73;2.63;;;21.10;99.90;;;;;;5068456;28;20208;-88
2021/08/13 10:43:39;;;;;;;2.37;2.03;;;21.20;99.90;;;;;;5042037;28;20180;-88
2021/08/13 10:46:08;;;;;;;2.90;1.77;;;21.20;99.90;;;;;;5060636;28;20215;-87
2021/08/13 10:48:37;;;;;;;6.30;1.77;;;21.40;99.90;;;;;;5057189;28;20205;-89
2021/08/13 10:51:03;;;;;;;4.97;2.00;;;21.40;99.90;;;;;;5060619;28;20205;-87
2021/08/13 10:53:37;;;;;;;5.37;1.90;;;21.50;99.90;;;;;;5061307;28;20215;-87
2021/08/13 10:56:04;;;;;;;3.33;1.57;;;22.00;99.90;;;;;;5060689;28;20205;-90
2021/08/13 10:58:36;;;;;;;10.73;3.00;;;21.60;99.90;;;;;;5045454;28;20185;-88
2021/08/13 11:01:21;;;;;;;7.40;1.80;;;21.40;99.90;;;;;;5057635;28;20189;-88
2021/08/13 11:03:53;;;;;;;7.43;1.97;;;21.50;99.90;;;;;;5031463;28;20228;-89
2021/08/13 11:06:37;;;;;;;12.33;2.57;;;21.40;99.90;;;;;;5050165;28;21122;-87
2021/08/13 11:09:27;;;;;;;3.60;1.90;;;21.40;99.90;;;;;;5046701;28;20221;-89
2021/08/13 11:11:55;;;;;;;4.33;1.80;;;21.10;99.90;;;;;;5028250;28;20259;-87
2021/08/13 11:14:28;;;;;;;3.53;1.73;;;21.10;99.90;;;;;;5032724;28;20713;-86
2021/08/13 11:16:55;;;;;;;5.07;1.63;;;21.20;99.90;;;;;;5018443;28;20247;-88
2021/08/13 11:19:21;;;;;;;5.60;2.60;;;21.10;99.90;;;;;;5033918;28;20189;-87
2021/08/13 11:21:55;;;;;;;7.30;2.07;;;21.20;99.90;;;;;;5021351;28;20224;-89
2021/08/13 11:24:23;;;;;;;3.83;1.53;;;21.90;99.90;;;;;;5034256;28;20228;-87
2021/08/13 11:26:54;;;;;;;4.80;2.47;;;22.00;99.90;;;;;;5055005;28;20219;-85
2021/08/13 11:29:29;;;;;;;5.10;1.73;;;21.90;99.90;;;;;;5067545;28;20213;-86
2021/08/13 11:32:02;;;;;;;9.10;2.20;;;21.60;99.90;;;;;;5058931;28;20216;-86
2021/08/13 11:34:46;;;;;;;8.10;2.60;;;21.50;99.90;;;;;;5058188;28;20200;-87
2021/08/13 11:37:30;;;;;;;4.20;1.57;;;22.10;99.90;;;;;;5057348;28;20307;-87
2021/08/13 11:40:00;;;;;;;7.60;2.13;;;22.10;99.90;;;;;;5060668;28;20217;-87
2021/08/13 11:42:33;;;;;;;4.40;1.70;;;22.20;99.90;;;;;;5058359;28;20299;-88
2021/08/13 11:45:04;;;;;;;2.50;1.42;;;22.20;99.90;;;;;;5044863;28;20209;-86
2021/08/13 11:47:32;;;;;;;5.07;1.50;;;22.40;99.90;;;;;;5058151;28;20677;-88
2021/08/13 11:50:07;;;;;;;7.13;1.83;;;22.50;99.90;;;;;;5058847;28;20213;-87
2021/08/13 11:52:35;;;;;;;7.73;1.80;;;22.40;99.90;;;;;;5052256;28;20190;-86
2021/08/13 11:55:21;;;;;;;8.23;2.05;;;22.40;99.90;;;;;;5060623;28;20212;-87
2021/08/13 11:57:56;;;;;;;3.72;1.30;;;21.80;99.90;;;;;;5057476;28;20700;-88
2021/08/13 12:00:22;;;;;;;7.87;2.03;;;21.50;99.90;;;;;;5075798;28;20298;-88
2021/08/13 12:02:55;;;;;;;6.63;2.20;;;21.80;99.90;;;;;;5042845;28;20271;-89
2021/08/13 12:05:21;;;;;;;4.00;1.75;;;21.80;99.90;;;;;;5059517;28;20217;-87
2021/08/13 12:07:57;;;;;;;4.37;1.30;;;22.00;99.90;;;;;;5050573;28;20188;-87
2021/08/13 12:10:23;;;;;;;4.60;1.60;;;21.90;99.90;;;;;;5058132;28;20189;-86
2021/08/13 12:12:49;;;;;;;2.93;1.53;;;22.10;99.90;;;;;;5043251;28;20692;-86
2021/08/13 12:15:25;;;;;;;2.80;1.80;;;21.50;99.90;;;;;;5042488;28;20719;-86
2021/08/13 12:17:52;;;;;;;3.60;1.37;;;21.50;99.90;;;;;;5056422;28;20583;-85
2021/08/13 12:20:18;;;;;;;3.60;1.83;;;21.70;99.90;;;;;;5039528;28;20228;-86
2021/08/13 12:22:44;;;;;;;4.43;1.27;;;21.60;99.90;;;;;;5040619;28;20188;-86
2021/08/13 12:25:11;;;;;;;3.43;1.47;;;21.40;99.90;;;;;;5041291;28;20316;-88
2021/08/13 12:27:39;;;;;;;6.30;1.87;;;21.80;99.90;;;;;;5025920;28;20320;-88
2021/08/13 12:30:21;;;;;;;2.83;1.70;;;22.00;99.90;;;;;;5049590;28;20689;-87
2021/08/13 12:32:48;;;;;;;11.60;2.27;;;22.50;99.90;;;;;;5057505;28;20696;-87
2021/08/13 12:35:14;;;;;;;5.13;1.80;;;22.00;99.90;;;;;;5054305;28;20239;-87
2021/08/13 12:37:41;;;;;;;5.47;1.97;;;22.10;99.90;;;;;;5050054;28;20292;-89
2021/08/13 12:40:10;;;;;;;3.73;1.47;;;21.80;99.90;;;;;;5041658;28;20187;-88
2021/08/13 12:42:38;;;;;;;2.27;1.53;;;21.80;99.90;;;;;;5044601;28;20226;-88
2021/08/13 12:45:09;;;;;;;6.70;1.53;;;21.70;99.90;;;;;;5042997;28;20277;-87
2021/08/13 12:47:35;;;;;;;2.97;1.50;;;21.80;99.90;;;;;;5045055;28;20628;-88